Time;durP1;ratioP1;P1;durP2;ratioP2;P2;SDS_P1;SDS_P2;PMS_P1;PMS_P2;Temp;Humidity;BMP_temperature;BMP_pressure;BME280_temperature;BME280_humidity;BME280_pressure;Samples;Min_cycle;Max_cycle;Signal;HPM_P1;HPM_P2
2021/04/13 00:02:52;;;;;;;2.65;0.80;;;0.20;88.70;;;;;;4923426;29;20410;-62
2021/04/13 00:05:33;;;;;;;6.65;1.23;;;0.20;88.60;;;;;;4927145;29;20102;-62
2021/04/13 00:08:06;;;;;;;2.50;1.13;;;0.20;88.80;;;;;;4920715;29;20048;-62
2021/04/13 00:10:38;;;;;;;2.20;1.15;;;0.30;88.70;;;;;;4914594;29;20406;-62
2021/04/13 00:13:06;;;;;;;5.38;1.60;;;0.30;88.50;;;;;;4931251;29;20051;-61
2021/04/13 00:15:43;;;;;;;1.95;1.00;;;0.40;88.30;;;;;;4924895;29;20074;-62
2021/04/13 00:18:16;;;;;;;3.78;1.20;;;0.40;88.20;;;;;;4925654;29;20314;-62
2021/04/13 00:20:47;;;;;;;1.52;0.88;;;0.40;88.10;;;;;;4924767;29;20048;-62
2021/04/13 00:23:17;;;;;;;2.42;1.17;;;0.40;88.20;;;;;;4924483;29;20746;-62
2021/04/13 00:25:49;;;;;;;4.05;1.83;;;0.40;88.00;;;;;;4926169;29;20062;-61
2021/04/13 00:28:21;;;;;;;4.68;2.08;;;0.50;87.80;;;;;;4925695;29;20267;-62
2021/04/13 00:30:52;;;;;;;1.63;0.90;;;0.50;87.80;;;;;;4925272;29;20043;-62
2021/04/13 00:33:22;;;;;;;3.60;1.45;;;0.70;87.50;;;;;;4925873;29;20360;-62
2021/04/13 00:36:08;;;;;;;3.35;1.42;;;0.80;87.10;;;;;;4926456;29;20305;-62
2021/04/13 00:38:38;;;;;;;3.97;1.75;;;0.90;86.80;;;;;;4912086;29;20099;-61
2021/04/13 00:41:17;;;;;;;4.68;1.73;;;1.00;86.50;;;;;;4927078;29;20059;-62
2021/04/13 00:43:48;;;;;;;5.43;2.42;;;1.00;86.10;;;;;;4924852;29;20457;-62
2021/04/13 00:46:19;;;;;;;;;;;1.00;86.00;;;;;;4925049;29;20052;-62
2021/04/13 00:48:48;;;;;;;4.75;2.58;;;1.00;86.40;;;;;;4926163;29;20325;-61
2021/04/13 00:51:25;;;;;;;5.97;2.22;;;1.00;87.10;;;;;;4912455;29;20044;-62
2021/04/13 00:53:58;;;;;;;4.40;1.58;;;1.00;87.70;;;;;;4924661;29;20058;-62
2021/04/13 00:56:27;;;;;;;3.90;1.80;;;1.10;87.60;;;;;;4923407;29;20070;-61
2021/04/13 00:59:05;;;;;;;8.02;2.50;;;1.10;87.30;;;;;;4922125;29;20339;-62
2021/04/13 01:01:36;;;;;;;7.40;2.38;;;1.20;87.60;;;;;;4918892;29;20256;-62
2021/04/13 01:04:13;;;;;;;5.75;2.70;;;1.20;87.60;;;;;;4928814;29;20230;-61
2021/04/13 01:06:43;;;;;;;6.15;2.63;;;1.30;87.40;;;;;;4924142;29;20063;-63
2021/04/13 01:09:18;;;;;;;8.70;3.08;;;1.10;87.70;;;;;;4924364;29;20052;-62
2021/04/13 01:11:53;;;;;;;6.55;3.13;;;1.10;88.20;;;;;;4924581;29;20089;-62
2021/04/13 01:14:23;;;;;;;6.80;2.83;;;1.20;88.40;;;;;;4925559;29;20055;-61
2021/04/13 01:16:56;;;;;;;7.68;3.13;;;1.20;87.80;;;;;;4897602;29;20130;-62
2021/04/13 01:19:41;;;;;;;7.07;2.80;;;1.20;88.00;;;;;;4922810;29;20345;-61
2021/04/13 01:22:25;;;;;;;6.63;2.83;;;1.20;88.20;;;;;;4919805;29;20126;-62
2021/04/13 01:24:58;;;;;;;6.80;2.97;;;1.40;88.00;;;;;;4906506;29;20056;-62
2021/04/13 01:27:30;;;;;;;10.55;3.65;;;1.50;87.00;;;;;;3550109;29;10020743;-62
2021/04/13 01:30:11;;;;;;;6.93;2.67;;;1.40;86.90;;;;;;2025402;29;10002065;-63
2021/04/13 01:32:42;;;;;;;7.43;2.60;;;1.20;87.50;;;;;;4894274;29;20351;-61
2021/04/13 01:35:14;;;;;;;;;;;1.20;87.70;;;;;;4891315;29;23100;-62
2021/04/13 01:37:57;;;;;;;5.20;1.75;;;1.20;88.10;;;;;;4909075;29;19927;-61
2021/04/13 01:40:31;;;;;;;;;;;1.30;87.80;;;;;;4908718;29;20058;-62
2021/04/13 01:43:01;;;;;;;8.55;3.13;;;1.30;87.10;;;;;;4899301;29;19919;-62
2021/04/13 01:45:33;;;;;;;8.52;3.35;;;1.20;87.20;;;;;;4913871;29;20358;-62
2021/04/13 01:48:05;;;;;;;8.20;3.28;;;1.20;88.20;;;;;;4915497;29;20126;-62
2021/04/13 01:50:39;;;;;;;6.20;2.80;;;1.30;87.80;;;;;;4916203;29;20064;-62
2021/04/13 01:53:15;;;;;;;5.97;2.50;;;1.30;87.60;;;;;;4919558;29;20068;-61
2021/04/13 01:55:49;;;;;;;7.15;2.53;;;1.40;87.30;;;;;;4912885;29;20381;-63
2021/04/13 01:58:23;;;;;;;6.53;2.85;;;1.40;87.20;;;;;;4909200;29;20347;-63
2021/04/13 02:01:00;;;;;;;5.75;2.45;;;1.30;87.50;;;;;;4910587;29;20052;-61
2021/04/13 02:03:40;;;;;;;7.65;3.38;;;1.00;88.00;;;;;;4910056;29;20058;-62
2021/04/13 02:06:16;;;;;;;6.60;3.13;;;0.90;89.00;;;;;;4904843;29;20071;-62
2021/04/13 02:08:51;;;;;;;8.35;3.70;;;0.90;88.80;;;;;;4889753;29;20066;-62
2021/04/13 02:11:25;;;;;;;6.38;2.55;;;1.00;89.10;;;;;;4917347;29;20063;-62
2021/04/13 02:13:57;;;;;;;8.18;3.28;;;1.10;88.80;;;;;;4905878;29;20091;-62
2021/04/13 02:16:31;;;;;;;5.53;3.33;;;1.00;88.40;;;;;;4901072;29;20083;-62
2021/04/13 02:19:04;;;;;;;7.15;3.33;;;1.10;88.40;;;;;;4916084;29;20067;-62
2021/04/13 02:21:36;;;;;;;7.80;3.28;;;1.00;88.40;;;;;;4912819;29;20107;-61
2021/04/13 02:24:10;;;;;;;6.28;3.33;;;0.90;88.90;;;;;;4911180;29;20052;-62
2021/04/13 02:26:42;;;;;;;7.70;2.83;;;0.90;89.20;;;;;;4913626;29;20056;-62
2021/04/13 02:29:14;;;;;;;7.43;2.97;;;0.80;89.50;;;;;;4894596;29;20109;-62
2021/04/13 02:31:48;;;;;;;9.32;4.50;;;1.00;89.70;;;;;;4896002;29;20280;-62
2021/04/13 02:34:19;;;;;;;6.05;2.60;;;0.90;89.50;;;;;;4913388;29;20039;-62
2021/04/13 02:36:50;;;;;;;7.47;3.28;;;0.80;89.40;;;;;;4914942;29;20083;-62
2021/04/13 02:39:42;;;;;;;6.07;2.57;;;0.70;89.80;;;;;;4913643;29;20063;-62
2021/04/13 02:42:20;;;;;;;8.82;3.33;;;0.70;90.30;;;;;;4910262;29;20319;-62
2021/04/13 02:44:59;;;;;;;6.30;2.85;;;0.60;90.40;;;;;;4914667;29;20056;-62
2021/04/13 02:47:30;;;;;;;7.32;3.30;;;0.60;90.30;;;;;;4912970;29;20059;-62
2021/04/13 02:50:06;;;;;;;6.13;3.33;;;0.60;90.20;;;;;;4912801;29;20063;-61
2021/04/13 02:52:39;;;;;;;5.68;2.88;;;0.40;90.40;;;;;;4914013;29;20161;-62
2021/04/13 02:55:09;;;;;;;10.90;3.63;;;0.40;90.30;;;;;;4915031;29;20154;-62
2021/04/13 02:57:44;;;;;;;8.95;3.83;;;0.40;90.40;;;;;;4903926;29;20082;-62
2021/04/13 03:00:19;;;;;;;6.38;2.58;;;0.40;90.30;;;;;;4904112;29;20595;-62
2021/04/13 03:02:50;;;;;;;4.63;2.25;;;0.40;90.20;;;;;;4907297;29;20098;-62
2021/04/13 03:05:22;;;;;;;6.80;3.15;;;0.50;89.90;;;;;;4906197;29;20350;-62
2021/04/13 03:07:50;;;;;;;6.40;2.53;;;0.50;90.00;;;;;;4904987;29;20138;-63
2021/04/13 03:10:26;;;;;;;8.23;3.70;;;0.50;90.30;;;;;;4907041;29;20298;-61
2021/04/13 03:12:56;;;;;;;6.35;2.78;;;0.60;90.20;;;;;;4891874;29;20068;-62
2021/04/13 03:15:28;;;;;;;7.35;3.03;;;0.70;90.20;;;;;;4900957;29;20597;-61
2021/04/13 03:18:04;;;;;;;7.10;3.67;;;0.90;89.60;;;;;;4894621;29;20107;-61
2021/04/13 03:20:35;;;;;;;8.10;3.65;;;0.90;89.50;;;;;;4904863;29;20418;-61
2021/04/13 03:23:05;;;;;;;7.88;4.18;;;0.90;89.50;;;;;;4910779;29;20254;-62
2021/04/13 03:25:37;;;;;;;7.53;3.47;;;0.90;89.70;;;;;;4911605;29;20059;-61
2021/04/13 03:28:07;;;;;;;6.35;2.80;;;0.90;89.30;;;;;;4909473;29;20067;-62
2021/04/13 03:30:38;;;;;;;6.13;2.58;;;0.90;88.90;;;;;;4908323;29;20272;-62
2021/04/13 03:33:12;;;;;;;7.10;3.72;;;1.00;89.40;;;;;;4911592;29;20048;-62
2021/04/13 03:35:40;;;;;;;8.88;4.10;;;0.80;88.80;;;;;;4898827;29;20102;-62
2021/04/13 03:38:13;;;;;;;8.80;3.20;;;0.80;90.00;;;;;;4912444;29;20064;-62
2021/04/13 03:40:48;;;;;;;7.50;3.22;;;0.80;89.50;;;;;;4911019;29;21061;-61
2021/04/13 03:43:17;;;;;;;6.30;3.63;;;0.90;89.70;;;;;;4906761;29;20119;-62
2021/04/13 03:45:50;;;;;;;11.23;4.47;;;0.90;89.40;;;;;;4908589;29;20060;-61
2021/04/13 03:48:21;;;;;;;9.32;3.60;;;0.90;89.70;;;;;;4891572;29;20590;-62
2021/04/13 03:51:02;;;;;;;9.68;3.72;;;0.90;89.80;;;;;;4899909;29;20127;-62
2021/04/13 03:53:37;;;;;;;8.27;2.85;;;0.70;89.50;;;;;;4904716;29;20060;-62
2021/04/13 03:56:10;;;;;;;8.63;3.22;;;0.80;90.10;;;;;;4905677;29;20064;-62
2021/04/13 03:58:42;;;;;;;6.35;3.38;;;0.70;89.90;;;;;;4905807;29;20067;-62
2021/04/13 04:01:13;;;;;;;16.27;3.53;;;0.80;89.90;;;;;;4881769;29;20430;-62
2021/04/13 04:03:57;;;;;;;6.47;2.47;;;0.70;89.40;;;;;;4891000;29;20243;-62
2021/04/13 04:06:40;;;;;;;7.50;2.97;;;0.80;89.40;;;;;;4906099;29;20225;-63
2021/04/13 04:09:14;;;;;;;5.90;2.75;;;0.70;89.20;;;;;;4903636;29;20082;-62
2021/04/13 04:11:45;;;;;;;8.05;3.63;;;0.70;89.40;;;;;;4903384;29;20064;-63
2021/04/13 04:14:16;;;;;;;6.05;2.95;;;0.70;89.20;;;;;;4909318;29;20370;-62
2021/04/13 04:16:43;;;;;;;4.88;2.38;;;0.70;89.30;;;;;;4903190;29;20063;-62
2021/04/13 04:19:17;;;;;;;5.50;2.17;;;0.60;89.20;;;;;;4903649;29;20071;-62
2021/04/13 04:21:50;;;;;;;6.13;3.17;;;0.50;89.40;;;;;;4907821;29;20551;-61
2021/04/13 04:24:27;;;;;;;7.40;3.30;;;0.40;89.60;;;;;;4903178;29;20059;-62
2021/04/13 04:27:00;;;;;;;9.15;3.95;;;0.30;89.70;;;;;;4906854;29;23834;-62
2021/04/13 04:29:39;;;;;;;5.40;3.05;;;0.40;89.70;;;;;;4904674;29;20059;-61
2021/04/13 04:32:18;;;;;;;6.30;2.70;;;0.40;89.30;;;;;;4900193;29;20060;-63
2021/04/13 04:34:53;;;;;;;7.90;3.10;;;0.30;89.60;;;;;;4901777;29;20279;-61
2021/04/13 04:37:32;;;;;;;7.80;3.90;;;0.30;90.00;;;;;;4903341;29;20305;-61
2021/04/13 04:40:37;;;;;;;6.15;2.67;;;0.30;90.10;;;;;;4908029;29;20048;-62
2021/04/13 04:43:15;;;;;;;8.82;2.72;;;0.20;90.20;;;;;;4903642;29;20324;-61
2021/04/13 04:45:54;;;;;;;5.68;3.00;;;0.20;90.20;;;;;;4902431;29;20068;-62
2021/04/13 04:48:33;;;;;;;7.05;2.78;;;0.20;90.30;;;;;;4907819;29;20111;-62
2021/04/13 04:51:05;;;;;;;7.63;2.97;;;0.20;90.10;;;;;;4899882;29;20444;-62
2021/04/13 04:53:35;;;;;;;6.88;2.90;;;0.10;90.10;;;;;;4903702;29;20418;-62
2021/04/13 04:56:04;;;;;;;7.13;3.38;;;0.20;91.00;;;;;;4904921;29;20060;-61
2021/04/13 04:58:33;;;;;;;7.65;3.28;;;0.20;90.40;;;;;;4899041;29;20087;-63
2021/04/13 05:01:04;;;;;;;6.38;3.30;;;0.20;90.10;;;;;;4902125;29;20060;-62
2021/04/13 05:03:32;;;;;;;5.50;2.80;;;0.40;90.60;;;;;;4902490;29;20056;-62
2021/04/13 05:06:00;;;;;;;7.35;2.90;;;0.40;89.90;;;;;;4906927;29;20075;-62
2021/04/13 05:08:30;;;;;;;7.97;3.83;;;0.40;90.00;;;;;;4907528;29;20053;-62
2021/04/13 05:10:57;;;;;;;6.25;2.85;;;0.60;90.00;;;;;;4902970;29;20056;-61
2021/04/13 05:13:25;;;;;;;7.55;2.83;;;0.60;89.40;;;;;;4889879;29;20119;-63
2021/04/13 05:15:55;;;;;;;6.25;3.15;;;0.70;88.80;;;;;;4904345;29;20469;-61
2021/04/13 05:18:22;;;;;;;7.10;3.05;;;0.40;89.70;;;;;;4904327;29;20582;-62
2021/04/13 05:20:50;;;;;;;10.05;3.55;;;0.40;89.50;;;;;;4904321;29;20060;-61
2021/04/13 05:23:17;;;;;;;7.97;3.70;;;0.40;89.50;;;;;;4906572;29;20083;-62
2021/04/13 05:25:45;;;;;;;7.72;3.40;;;0.30;89.60;;;;;;4905839;29;20052;-62
2021/04/13 05:28:12;;;;;;;6.55;3.00;;;0.30;89.70;;;;;;4902821;29;20079;-62
2021/04/13 05:30:40;;;;;;;6.57;2.85;;;0.30;89.10;;;;;;4904380;29;20067;-60
2021/04/13 05:33:08;;;;;;;5.50;2.70;;;0.20;89.00;;;;;;4904488;29;20059;-61
2021/04/13 05:35:36;;;;;;;7.72;3.50;;;0.10;89.10;;;;;;4898556;29;20052;-61
2021/04/13 05:38:06;;;;;;;9.10;3.40;;;0.10;89.30;;;;;;4903825;29;20060;-61
2021/04/13 05:40:37;;;;;;;5.88;2.88;;;0.20;89.00;;;;;;4908647;29;20060;-62
2021/04/13 05:43:08;;;;;;;8.27;4.20;;;0.30;89.70;;;;;;4887452;29;20060;-62
2021/04/13 05:45:38;;;;;;;26.23;3.97;;;0.50;89.00;;;;;;4904598;29;20120;-62
2021/04/13 05:48:10;;;;;;;4.88;2.20;;;0.60;88.50;;;;;;4899683;29;20127;-61
2021/04/13 05:50:41;;;;;;;7.32;4.03;;;0.60;87.90;;;;;;4904485;29;20133;-62
2021/04/13 05:53:12;;;;;;;;;;;0.50;88.30;;;;;;4898168;29;21747;-62
2021/04/13 05:55:40;;;;;;;8.30;3.22;;;0.60;87.90;;;;;;4904886;29;19958;-62
2021/04/13 05:58:11;;;;;;;9.98;4.57;;;0.70;88.10;;;;;;4905427;29;20056;-64
2021/04/13 06:00:38;;;;;;;7.47;2.63;;;0.70;88.10;;;;;;4903032;29;20078;-62
2021/04/13 06:03:08;;;;;;;8.00;3.75;;;0.70;87.40;;;;;;4902611;29;20056;-62
2021/04/13 06:05:36;;;;;;;6.28;3.08;;;0.70;87.20;;;;;;4902587;29;20331;-61
2021/04/13 06:08:05;;;;;;;6.88;3.13;;;0.70;87.40;;;;;;4902355;29;20080;-62
2021/04/13 06:10:36;;;;;;;9.90;2.92;;;0.80;87.50;;;;;;4897922;29;20339;-62
2021/04/13 06:13:04;;;;;;;9.82;3.53;;;0.70;88.20;;;;;;4899942;29;20288;-62
2021/04/13 06:15:34;;;;;;;7.75;3.67;;;1.00;87.00;;;;;;4903055;29;20343;-63
2021/04/13 06:18:09;;;;;;;7.03;2.67;;;1.20;86.70;;;;;;4902506;29;20052;-62
2021/04/13 06:20:44;;;;;;;7.60;3.85;;;1.30;86.10;;;;;;4900629;29;20063;-61
2021/04/13 06:23:12;;;;;;;7.68;3.65;;;1.30;86.50;;;;;;4886034;29;20294;-62
2021/04/13 06:25:40;;;;;;;7.43;3.70;;;1.30;85.80;;;;;;4909033;29;20067;-61
2021/04/13 06:28:11;;;;;;;10.85;3.85;;;1.40;86.30;;;;;;4907389;29;20064;-62
2021/04/13 06:30:41;;;;;;;7.68;3.22;;;1.60;85.80;;;;;;4903267;29;20063;-62
2021/04/13 06:33:08;;;;;;;6.05;2.85;;;1.60;86.00;;;;;;4908625;29;20067;-62
2021/04/13 06:35:36;;;;;;;6.40;3.22;;;1.80;85.10;;;;;;4910670;29;20064;-61
2021/04/13 06:38:10;;;;;;;7.32;3.30;;;1.80;84.20;;;;;;4905512;29;20266;-62
2021/04/13 06:40:56;;;;;;;8.23;3.60;;;1.90;83.80;;;;;;4905273;29;20062;-62
2021/04/13 06:43:50;;;;;;;5.55;3.10;;;1.80;84.10;;;;;;4907984;29;20063;-62
2021/04/13 06:46:26;;;;;;;6.45;3.15;;;1.90;83.80;;;;;;4892595;29;20150;-61
2021/04/13 06:49:16;;;;;;;7.78;3.35;;;1.90;84.00;;;;;;4903275;29;20304;-62
2021/04/13 06:51:54;;;;;;;6.35;2.95;;;2.00;83.50;;;;;;4905381;29;20354;-62
2021/04/13 06:54:40;;;;;;;11.20;4.15;;;2.00;83.70;;;;;;4905870;29;20059;-61
2021/04/13 06:57:32;;;;;;;8.10;4.30;;;1.90;83.40;;;;;;4905835;29;20060;-61
2021/04/13 07:00:13;;;;;;;7.05;2.88;;;1.90;83.30;;;;;;4902430;29;20204;-62
2021/04/13 07:02:53;;;;;;;6.82;3.15;;;1.90;82.80;;;;;;4905957;29;20060;-62
2021/04/13 07:05:26;;;;;;;7.57;4.07;;;2.10;82.90;;;;;;4899038;29;20059;-62
2021/04/13 07:08:02;;;;;;;8.85;4.00;;;2.10;82.80;;;;;;4913243;29;20625;-61
2021/04/13 07:10:34;;;;;;;8.98;4.57;;;2.20;82.90;;;;;;4909722;29;20060;-62
2021/04/13 07:13:06;;;;;;;9.07;4.20;;;2.40;82.70;;;;;;4892295;29;20063;-61
2021/04/13 07:15:42;;;;;;;10.32;4.90;;;2.50;82.20;;;;;;4905755;29;20063;-62
2021/04/13 07:18:16;;;;;;;9.32;4.45;;;2.70;81.30;;;;;;4909724;29;20064;-62
2021/04/13 07:20:50;;;;;;;13.00;5.43;;;2.70;80.80;;;;;;4906636;29;20514;-62
2021/04/13 07:23:24;;;;;;;9.27;4.25;;;3.10;79.90;;;;;;4908457;29;20059;-61
2021/04/13 07:25:56;;;;;;;8.32;4.07;;;3.30;78.80;;;;;;4897893;29;20060;-62
2021/04/13 07:28:28;;;;;;;10.50;4.57;;;3.00;79.00;;;;;;4917304;29;20059;-61
2021/04/13 07:30:59;;;;;;;7.95;4.50;;;3.10;79.00;;;;;;4894631;29;20090;-62
2021/04/13 07:33:30;;;;;;;9.60;4.78;;;3.00;78.40;;;;;;4908083;29;20175;-61
2021/04/13 07:36:02;;;;;;;10.27;5.07;;;3.20;79.30;;;;;;4915773;29;20059;-62
2021/04/13 07:38:36;;;;;;;8.45;3.90;;;3.10;79.20;;;;;;4911719;29;20056;-61
2021/04/13 07:41:09;;;;;;;7.43;3.90;;;3.30;79.70;;;;;;4912471;29;20167;-62
2021/04/13 07:43:42;;;;;;;7.60;3.85;;;3.60;78.80;;;;;;4913147;29;20048;-62
2021/04/13 07:46:28;;;;;;;8.88;4.20;;;3.70;78.10;;;;;;4909444;29;20918;-63
2021/04/13 07:49:12;;;;;;;13.30;5.70;;;3.60;78.50;;;;;;4908942;29;20127;-63
2021/04/13 07:51:52;;;;;;;10.90;4.90;;;3.70;78.40;;;;;;4910611;29;20409;-62
2021/04/13 07:54:35;;;;;;;;;;;3.60;78.50;;;;;;4913433;29;20424;-62
2021/04/13 07:57:09;;;;;;;9.02;4.90;;;3.30;79.90;;;;;;4907599;29;19982;-62
2021/04/13 07:59:45;;;;;;;10.95;5.47;;;3.40;80.30;;;;;;4903800;29;20094;-62
2021/04/13 08:02:13;;;;;;;12.82;5.22;;;3.20;79.90;;;;;;4906386;29;20060;-62
2021/04/13 08:04:48;;;;;;;12.43;4.85;;;3.20;81.20;;;;;;4907168;29;20067;-62
2021/04/13 08:07:20;;;;;;;10.65;4.68;;;3.30;81.30;;;;;;4905815;29;20063;-61
2021/04/13 08:10:05;;;;;;;12.10;5.22;;;3.20;81.70;;;;;;4904146;29;20216;-62
2021/04/13 08:12:36;;;;;;;9.43;4.78;;;3.20;81.40;;;;;;4903541;29;20067;-62
2021/04/13 08:15:12;;;;;;;11.27;5.88;;;3.10;81.80;;;;;;4906539;29;20051;-62
2021/04/13 08:18:00;;;;;;;12.02;5.63;;;3.30;81.50;;;;;;4904444;29;20091;-62
2021/04/13 08:20:34;;;;;;;7.72;3.80;;;3.30;81.40;;;;;;4888445;29;20178;-62
2021/04/13 08:23:05;;;;;;;9.10;4.28;;;3.40;81.10;;;;;;4903383;29;20259;-62
2021/04/13 08:25:37;;;;;;;10.10;4.80;;;3.50;80.80;;;;;;4911137;29;20144;-62
2021/04/13 08:28:22;;;;;;;12.10;5.55;;;3.60;81.00;;;;;;4902330;29;20095;-61
2021/04/13 08:32:50;;;;;;;7.68;3.78;;;3.70;80.00;;;;;;4886121;29;20073;-63
2021/04/13 08:34:03;;;;;;;9.40;4.60;;;3.80;79.40;;;;;;4894171;29;20179;-62
2021/04/13 08:36:48;;;;;;;8.75;4.95;;;4.10;78.80;;;;;;4907784;29;20056;-62
2021/04/13 08:39:27;;;;;;;7.22;4.10;;;4.30;78.00;;;;;;4903083;29;20079;-62
2021/04/13 08:42:07;;;;;;;8.82;4.90;;;4.60;77.40;;;;;;4901164;29;20366;-62
2021/04/13 08:44:46;;;;;;;8.10;4.47;;;4.90;76.90;;;;;;4908616;29;20108;-62
2021/04/13 08:47:19;;;;;;;13.55;4.88;;;5.20;74.60;;;;;;4907221;29;20079;-61
2021/04/13 08:49:53;;;;;;;10.52;5.38;;;5.40;73.10;;;;;;4907510;29;20059;-62
2021/04/13 08:52:39;;;;;;;10.02;4.93;;;5.80;72.70;;;;;;4910303;29;20123;-61
2021/04/13 08:55:14;;;;;;;7.85;4.32;;;6.10;69.70;;;;;;4902016;29;20115;-62
2021/04/13 08:57:45;;;;;;;7.88;3.58;;;6.30;69.30;;;;;;4907692;29;20075;-62
2021/04/13 09:00:37;;;;;;;8.52;4.05;;;6.70;66.90;;;;;;4909559;29;20339;-62
2021/04/13 09:03:13;;;;;;;7.78;4.18;;;7.10;64.40;;;;;;4893674;29;20063;-62
2021/04/13 09:05:42;;;;;;;8.75;3.70;;;7.40;62.80;;;;;;4907957;29;20263;-67
2021/04/13 09:08:30;;;;;;;8.95;3.85;;;7.70;60.50;;;;;;4903487;29;20055;-63
2021/04/13 09:11:18;;;;;;;7.75;4.20;;;8.00;59.30;;;;;;4910249;29;20060;-62
2021/04/13 09:14:01;;;;;;;7.05;3.63;;;8.40;57.90;;;;;;4899195;29;20340;-62
2021/04/13 09:16:56;;;;;;;6.93;3.22;;;8.70;56.80;;;;;;4907276;29;20347;-62
2021/04/13 09:19:32;;;;;;;8.40;3.50;;;8.90;54.90;;;;;;4913112;29;20276;-62
2021/04/13 09:22:14;;;;;;;7.25;3.60;;;9.20;53.80;;;;;;4910098;29;20048;-62
2021/04/13 09:24:43;;;;;;;6.93;2.92;;;9.60;51.10;;;;;;4908509;29;20066;-62
2021/04/13 09:27:30;;;;;;;7.13;2.53;;;9.90;49.20;;;;;;4908099;29;20066;-61
2021/04/13 09:29:59;;;;;;;7.05;2.80;;;10.20;49.70;;;;;;4910152;29;20068;-62
2021/04/13 09:32:40;;;;;;;6.22;2.78;;;10.30;47.10;;;;;;4905598;29;20335;-62
2021/04/13 09:35:41;;;;;;;5.25;2.28;;;9.80;47.90;;;;;;4908991;29;20315;-62
2021/04/13 09:38:27;;;;;;;3.47;1.90;;;9.70;48.30;;;;;;4911169;29;20064;-62
2021/04/13 09:41:09;;;;;;;3.60;1.40;;;9.30;48.00;;;;;;4909218;29;20059;-62
2021/04/13 09:43:55;;;;;;;7.07;2.47;;;9.10;48.80;;;;;;4890505;29;20131;-63
2021/04/13 09:46:41;;;;;;;6.90;2.00;;;8.80;49.40;;;;;;4915383;29;20060;-62
2021/04/13 09:49:35;;;;;;;5.53;2.60;;;8.80;50.40;;;;;;4907575;29;20067;-62
2021/04/13 09:52:54;;;;;;;7.13;2.25;;;8.80;49.80;;;;;;4875345;29;20060;-62
2021/04/13 09:55:31;;;;;;;4.57;1.95;;;8.50;50.40;;;;;;4865363;29;20071;-62
2021/04/13 09:58:47;;;;;;;5.78;1.10;;;8.40;48.30;;;;;;4909559;29;20066;-62
2021/04/13 10:01:30;;;;;;;1.40;0.57;;;8.60;46.80;;;;;;4884268;29;20116;-62
2021/04/13 10:04:30;;;;;;;1.77;0.60;;;9.10;44.20;;;;;;4910749;29;20123;-62
2021/04/13 10:07:19;;;;;;;2.38;0.60;;;9.70;43.20;;;;;;4908201;29;20329;-62
2021/04/13 10:09:49;;;;;;;0.90;0.50;;;10.30;40.50;;;;;;4908141;29;20066;-62
2021/04/13 10:12:52;;;;;;;3.03;0.80;;;11.10;40.00;;;;;;4913680;29;20402;-62
2021/04/13 10:16:04;;;;;;;1.98;0.70;;;11.50;38.20;;;;;;4879011;29;20567;-62
2021/04/13 10:19:06;;;;;;;2.22;0.98;;;11.30;38.30;;;;;;4908806;29;20048;-62
2021/04/13 10:22:24;;;;;;;3.20;0.75;;;10.80;40.10;;;;;;4885793;29;20285;-62
2021/04/13 10:25:25;;;;;;;1.55;0.60;;;10.80;40.40;;;;;;4903134;29;20323;-62
2021/04/13 10:28:18;;;;;;;2.38;0.47;;;11.70;37.40;;;;;;4909548;29;20138;-62
2021/04/13 10:31:31;;;;;;;2.92;0.45;;;13.00;34.20;;;;;;4892367;29;20060;-62
2021/04/13 10:34:40;;;;;;;0.82;0.38;;;12.40;34.50;;;;;;4907589;29;20123;-62
2021/04/13 10:37:45;;;;;;;2.33;0.50;;;12.20;34.90;;;;;;4911301;29;20288;-62
2021/04/13 10:40:40;;;;;;;2.08;0.40;;;12.50;34.20;;;;;;4893849;29;20052;-62
2021/04/13 10:43:44;;;;;;;0.90;0.63;;;12.20;36.40;;;;;;4909419;29;20359;-62
2021/04/13 10:46:24;;;;;;;1.77;0.40;;;12.00;35.90;;;;;;4917245;29;20563;-61
2021/04/13 10:49:35;;;;;;;0.98;0.43;;;11.80;35.10;;;;;;4908092;29;20056;-62
2021/04/13 10:52:36;;;;;;;3.13;0.80;;;11.30;36.80;;;;;;4892995;29;20363;-62
2021/04/13 10:55:34;;;;;;;1.55;0.30;;;11.60;37.60;;;;;;4919479;29;20052;-61
2021/04/13 10:58:37;;;;;;;2.25;0.80;;;11.80;37.60;;;;;;4916511;29;20631;-61
2021/04/13 11:01:47;;;;;;;0.98;0.30;;;12.10;37.40;;;;;;4910481;29;20057;-61
2021/04/13 11:04:50;;;;;;;2.53;0.50;;;11.90;37.70;;;;;;4910843;29;20330;-62
2021/04/13 11:08:02;;;;;;;2.38;0.60;;;11.30;40.00;;;;;;4911565;29;20062;-63
2021/04/13 11:10:53;;;;;;;1.33;0.40;;;10.90;41.40;;;;;;4910075;29;20308;-62
2021/04/13 11:13:58;;;;;;;2.33;0.70;;;10.70;41.70;;;;;;4907897;29;20044;-62
2021/04/13 11:16:58;;;;;;;3.55;0.52;;;10.60;41.90;;;;;;4841883;29;20069;-61
2021/04/13 11:19:32;;;;;;;5.72;1.13;;;11.50;41.50;;;;;;4912412;29;20066;-61
2021/04/13 11:22:40;;;;;;;1.45;0.55;;;15.90;34.10;;;;;;4907108;29;20072;-62
2021/04/13 11:25:43;;;;;;;2.42;0.50;;;18.00;28.90;;;;;;4908207;29;20092;-62
2021/04/13 11:29:03;;;;;;;3.85;0.88;;;15.60;31.30;;;;;;4911102;29;20143;-62
2021/04/13 11:32:14;;;;;;;1.52;0.50;;;15.60;30.80;;;;;;4910451;29;20055;-63
2021/04/13 11:35:04;;;;;;;1.13;0.28;;;14.60;31.60;;;;;;4909878;29;20060;-62
2021/04/13 11:38:02;;;;;;;3.35;0.88;;;13.60;32.80;;;;;;4915917;29;20123;-62
2021/04/13 11:40:50;;;;;;;0.52;0.30;;;13.10;32.80;;;;;;4912692;29;20084;-62
2021/04/13 11:43:21;;;;;;;2.92;0.73;;;12.70;34.10;;;;;;4918357;29;20044;-61
2021/04/13 11:45:58;;;;;;;1.23;0.45;;;12.00;33.70;;;;;;4916686;29;20059;-61
2021/04/13 11:48:30;;;;;;;3.05;0.30;;;11.50;35.60;;;;;;4917506;29;20063;-62
2021/04/13 11:51:04;;;;;;;1.83;0.80;;;11.20;36.40;;;;;;4920794;29;20052;-62
2021/04/13 11:53:36;;;;;;;2.75;0.55;;;10.70;38.20;;;;;;4906091;29;20073;-61
2021/04/13 11:56:41;;;;;;;1.85;0.40;;;10.50;38.30;;;;;;4917758;29;20068;-61
2021/04/13 11:59:25;;;;;;;2.30;0.88;;;10.30;39.20;;;;;;4907095;29;20064;-62
2021/04/13 12:01:57;;;;;;;2.22;0.85;;;10.20;39.20;;;;;;4911720;29;20298;-62
2021/04/13 12:04:40;;;;;;;3.33;0.65;;;10.30;39.40;;;;;;4920309;29;20064;-62
2021/04/13 12:07:11;;;;;;;1.80;0.65;;;10.50;40.30;;;;;;4914653;29;20115;-62
2021/04/13 12:09:57;;;;;;;2.92;0.85;;;10.90;39.90;;;;;;4899547;29;20132;-62
2021/04/13 12:12:49;;;;;;;2.15;0.90;;;11.50;38.90;;;;;;4895972;29;20052;-62
2021/04/13 12:15:50;;;;;;;1.75;0.60;;;11.50;37.20;;;;;;4910878;29;20051;-62
2021/04/13 12:18:47;;;;;;;3.05;0.70;;;11.10;37.80;;;;;;4908270;29;20083;-62
2021/04/13 12:21:51;;;;;;;2.75;0.93;;;11.00;39.10;;;;;;4910488;29;20048;-62
2021/04/13 12:24:52;;;;;;;2.05;0.70;;;10.90;38.90;;;;;;4912198;29;20048;-61
2021/04/13 12:27:57;;;;;;;3.53;0.75;;;11.10;38.60;;;;;;4914900;29;20055;-61
2021/04/13 12:30:53;;;;;;;3.80;0.80;;;11.20;38.30;;;;;;4920233;29;20056;-61
2021/04/13 12:34:09;;;;;;;2.00;0.60;;;11.10;38.60;;;;;;4910482;29;20116;-61
2021/04/13 12:36:57;;;;;;;0.80;0.38;;;11.10;40.20;;;;;;4911134;29;20075;-62
2021/04/13 12:39:44;;;;;;;4.30;1.15;;;11.40;37.40;;;;;;4909372;29;20083;-62
2021/04/13 12:42:49;;;;;;;6.10;1.52;;;11.60;36.30;;;;;;4906481;29;20095;-61
2021/04/13 12:45:52;;;;;;;4.70;0.88;;;11.90;36.40;;;;;;4908895;29;20048;-61
2021/04/13 12:48:43;;;;;;;6.68;1.48;;;12.10;36.30;;;;;;4915151;29;20064;-61
2021/04/13 12:51:24;;;;;;;4.00;1.50;;;12.50;35.00;;;;;;4912285;29;20052;-62
2021/04/13 12:54:13;;;;;;;5.18;1.65;;;12.60;34.60;;;;;;4911508;29;20406;-62
2021/04/13 12:56:41;;;;;;;2.85;0.57;;;12.70;33.80;;;;;;4908630;29;20055;-62
2021/04/13 12:59:12;;;;;;;3.17;0.82;;;12.60;33.10;;;;;;4907517;29;20066;-61
2021/04/13 13:01:46;;;;;;;2.17;0.70;;;13.60;32.80;;;;;;4909828;29;20402;-62
2021/04/13 13:04:18;;;;;;;9.60;1.10;;;15.00;30.80;;;;;;4908769;29;20060;-62
2021/04/13 13:06:53;;;;;;;3.90;0.88;;;14.20;31.60;;;;;;4908386;29;20060;-62
2021/04/13 13:09:33;;;;;;;2.03;0.65;;;14.30;31.60;;;;;;4908529;29;20060;-61
2021/04/13 13:12:08;;;;;;;2.65;0.80;;;14.60;30.70;;;;;;4910538;29;20120;-62
2021/04/13 13:14:42;;;;;;;3.88;0.82;;;14.70;29.90;;;;;;4912681;29;20060;-62
2021/04/13 13:17:15;;;;;;;2.22;0.60;;;15.20;30.50;;;;;;4913720;29;20063;-62
2021/04/13 13:19:49;;;;;;;3.15;0.55;;;18.00;25.90;;;;;;4910310;29;20063;-61
2021/04/13 13:22:21;;;;;;;3.15;0.70;;;20.60;24.00;;;;;;4898748;29;20048;-62
2021/04/13 13:24:51;;;;;;;3.88;0.70;;;19.10;23.70;;;;;;4907580;29;20107;-62
2021/04/13 13:27:28;;;;;;;1.37;0.57;;;19.40;24.90;;;;;;4909617;29;20063;-62
2021/04/13 13:29:57;;;;;;;3.10;1.05;;;19.80;24.10;;;;;;4915245;29;20364;-62
2021/04/13 13:32:27;;;;;;;3.13;0.53;;;18.90;23.20;;;;;;4900567;29;20083;-62
2021/04/13 13:34:57;;;;;;;1.45;0.50;;;18.50;24.00;;;;;;4903337;29;20052;-62
2021/04/13 13:37:28;;;;;;;2.85;0.63;;;17.30;25.80;;;;;;4916902;29;20064;-62
2021/04/13 13:39:58;;;;;;;3.33;0.73;;;17.10;25.80;;;;;;4913373;29;20053;-63
2021/04/13 13:42:27;;;;;;;4.15;0.40;;;16.40;26.40;;;;;;4917826;29;20075;-62
2021/04/13 13:44:58;;;;;;;2.33;0.60;;;15.50;27.50;;;;;;4915555;29;20052;-63
2021/04/13 13:47:37;;;;;;;3.67;0.60;;;14.70;29.00;;;;;;4914486;29;20048;-62
2021/04/13 13:50:23;;;;;;;0.82;0.40;;;14.30;29.20;;;;;;4907100;29;20059;-62
2021/04/13 13:52:53;;;;;;;5.13;0.95;;;13.80;30.30;;;;;;4914886;29;20048;-61
2021/04/13 13:55:23;;;;;;;1.38;0.55;;;13.70;31.20;;;;;;4913525;29;20116;-62
2021/04/13 13:58:21;;;;;;;3.17;0.70;;;15.40;27.80;;;;;;4915302;29;20048;-61